sensor_id;sensor_type;location;lat;lon;timestamp;temperature;humidity
45715;DHT22;31430;61.646;24.704;2022-07-29T00:00:45;13.30;99.90
45715;DHT22;31430;61.646;24.704;2022-07-29T00:03:11;13.20;99.90
45715;DHT22;31430;61.646;24.704;2022-07-29T00:05:40;13.20;99.90
45715;DHT22;31430;61.646;24.704;2022-07-29T00:08:07;13.20;99.90
45715;DHT22;31430;61.646;24.704;2022-07-29T00:10:33;13.20;99.90
45715;DHT22;31430;61.646;24.704;2022-07-29T00:12:59;13.20;99.90
45715;DHT22;31430;61.646;24.704;2022-07-29T00:15:25;13.10;99.90
45715;DHT22;31430;61.646;24.704;2022-07-29T00:17:50;13.00;99.90
45715;DHT22;31430;61.646;24.704;2022-07-29T00:20:16;12.90;99.90
45715;DHT22;31430;61.646;24.704;2022-07-29T00:22:42;13.00;99.90
45715;DHT22;31430;61.646;24.704;2022-07-29T00:25:08;13.00;99.90
45715;DHT22;31430;61.646;24.704;2022-07-29T00:27:35;12.90;99.90
45715;DHT22;31430;61.646;24.704;2022-07-29T00:30:02;12.90;99.90
45715;DHT22;31430;61.646;24.704;2022-07-29T00:32:28;12.90;99.90
45715;DHT22;31430;61.646;24.704;2022-07-29T00:34:54;12.90;99.90
45715;DHT22;31430;61.646;24.704;2022-07-29T00:37:38;12.90;99.90
45715;DHT22;31430;61.646;24.704;2022-07-29T00:40:05;12.90;99.90
45715;DHT22;31430;61.646;24.704;2022-07-29T00:42:30;13.00;99.90
45715;DHT22;31430;61.646;24.704;2022-07-29T00:44:56;13.00;99.90
45715;DHT22;31430;61.646;24.704;2022-07-29T00:47:22;13.00;99.90
45715;DHT22;31430;61.646;24.704;2022-07-29T00:49:47;13.00;99.90
45715;DHT22;31430;61.646;24.704;2022-07-29T00:52:13;13.00;99.90
45715;DHT22;31430;61.646;24.704;2022-07-29T00:54:40;12.90;99.90
45715;DHT22;31430;61.646;24.704;2022-07-29T00:57:08;12.80;99.90
45715;DHT22;31430;61.646;24.704;2022-07-29T00:59:34;12.80;99.90
45715;DHT22;31430;61.646;24.704;2022-07-29T01:02:01;12.70;99.90
45715;DHT22;31430;61.646;24.704;2022-07-29T01:04:26;12.70;99.90
45715;DHT22;31430;61.646;24.704;2022-07-29T01:06:53;12.70;99.90
45715;DHT22;31430;61.646;24.704;2022-07-29T01:09:19;12.70;99.90
45715;DHT22;31430;61.646;24.704;2022-07-29T01:11:46;12.70;99.90
45715;DHT22;31430;61.646;24.704;2022-07-29T01:14:13;12.80;99.90
45715;DHT22;31430;61.646;24.704;2022-07-29T01:16:48;12.80;99.90
45715;DHT22;31430;61.646;24.704;2022-07-29T01:22:30;12.80;99.90
45715;DHT22;31430;61.646;24.704;2022-07-29T01:28:01;12.80;99.90
45715;DHT22;31430;61.646;24.704;2022-07-29T01:30:32;12.80;99.90
45715;DHT22;31430;61.646;24.704;2022-07-29T01:33:06;12.70;99.90
45715;DHT22;31430;61.646;24.704;2022-07-29T01:35:36;12.70;99.90
45715;DHT22;31430;61.646;24.704;2022-07-29T01:38:22;12.60;99.90
45715;DHT22;31430;61.646;24.704;2022-07-29T01:40:54;12.60;99.90
45715;DHT22;31430;61.646;24.704;2022-07-29T01:43:42;12.50;99.90
45715;DHT22;31430;61.646;24.704;2022-07-29T01:46:13;12.50;99.90
45715;DHT22;31430;61.646;24.704;2022-07-29T01:49:06;12.50;99.90
45715;DHT22;31430;61.646;24.704;2022-07-29T01:51:43;12.40;99.90
45715;DHT22;31430;61.646;24.704;2022-07-29T01:54:16;12.40;99.90
45715;DHT22;31430;61.646;24.704;2022-07-29T01:56:45;12.40;99.90
45715;DHT22;31430;61.646;24.704;2022-07-29T01:59:12;12.40;99.90
45715;DHT22;31430;61.646;24.704;2022-07-29T02:01:39;12.40;99.90
45715;DHT22;31430;61.646;24.704;2022-07-29T02:04:06;12.40;99.90
45715;DHT22;31430;61.646;24.704;2022-07-29T02:06:35;12.40;99.90
45715;DHT22;31430;61.646;24.704;2022-07-29T02:09:03;12.40;99.90
45715;DHT22;31430;61.646;24.704;2022-07-29T02:11:33;12.40;99.90
45715;DHT22;31430;61.646;24.704;2022-07-29T02:14:00;12.40;99.90
45715;DHT22;31430;61.646;24.704;2022-07-29T02:16:29;12.50;99.90
45715;DHT22;31430;61.646;24.704;2022-07-29T02:18:56;12.50;99.90
45715;DHT22;31430;61.646;24.704;2022-07-29T02:21:24;12.50;99.90
45715;DHT22;31430;61.646;24.704;2022-07-29T02:23:52;12.40;99.90
45715;DHT22;31430;61.646;24.704;2022-07-29T02:26:21;12.50;99.90
45715;DHT22;31430;61.646;24.704;2022-07-29T02:28:50;12.50;99.90
45715;DHT22;31430;61.646;24.704;2022-07-29T02:31:18;12.50;99.90
45715;DHT22;31430;61.646;24.704;2022-07-29T02:33:46;12.40;99.90
45715;DHT22;31430;61.646;24.704;2022-07-29T02:36:12;12.40;99.90
45715;DHT22;31430;61.646;24.704;2022-07-29T02:38:38;12.60;99.90
45715;DHT22;31430;61.646;24.704;2022-07-29T02:44:18;12.60;99.90
45715;DHT22;31430;61.646;24.704;2022-07-29T02:47:07;12.70;99.90
45715;DHT22;31430;61.646;24.704;2022-07-29T02:49:41;12.80;99.90
45715;DHT22;31430;61.646;24.704;2022-07-29T02:54:46;12.90;99.90
45715;DHT22;31430;61.646;24.704;2022-07-29T02:57:35;12.80;99.90
45715;DHT22;31430;61.646;24.704;2022-07-29T03:00:06;12.80;99.90
45715;DHT22;31430;61.646;24.704;2022-07-29T03:02:40;12.80;99.90
45715;DHT22;31430;61.646;24.704;2022-07-29T03:05:10;12.80;99.90
45715;DHT22;31430;61.646;24.704;2022-07-29T03:07:38;12.70;99.90
45715;DHT22;31430;61.646;24.704;2022-07-29T03:10:06;12.70;99.90
45715;DHT22;31430;61.646;24.704;2022-07-29T03:12:34;12.70;99.90
45715;DHT22;31430;61.646;24.704;2022-07-29T03:15:01;12.80;99.90
45715;DHT22;31430;61.646;24.704;2022-07-29T03:17:27;12.70;99.90
45715;DHT22;31430;61.646;24.704;2022-07-29T03:19:53;12.70;99.90
45715;DHT22;31430;61.646;24.704;2022-07-29T03:22:20;12.50;99.90
45715;DHT22;31430;61.646;24.704;2022-07-29T03:24:45;12.50;99.90
45715;DHT22;31430;61.646;24.704;2022-07-29T03:27:11;12.40;99.90
45715;DHT22;31430;61.646;24.704;2022-07-29T03:29:37;12.50;99.90
45715;DHT22;31430;61.646;24.704;2022-07-29T03:32:04;12.60;99.90
45715;DHT22;31430;61.646;24.704;2022-07-29T03:34:30;12.60;99.90
45715;DHT22;31430;61.646;24.704;2022-07-29T03:36:56;12.60;99.90
45715;DHT22;31430;61.646;24.704;2022-07-29T03:39:24;12.70;99.90
45715;DHT22;31430;61.646;24.704;2022-07-29T03:41:55;12.70;99.90
45715;DHT22;31430;61.646;24.704;2022-07-29T03:44:21;12.60;99.90
45715;DHT22;31430;61.646;24.704;2022-07-29T03:46:49;12.50;99.90
45715;DHT22;31430;61.646;24.704;2022-07-29T03:49:16;12.60;99.90
45715;DHT22;31430;61.646;24.704;2022-07-29T03:51:44;12.50;99.90
45715;DHT22;31430;61.646;24.704;2022-07-29T03:54:10;12.50;99.90
45715;DHT22;31430;61.646;24.704;2022-07-29T03:56:42;12.50;99.90
45715;DHT22;31430;61.646;24.704;2022-07-29T03:59:13;12.70;99.90
45715;DHT22;31430;61.646;24.704;2022-07-29T04:01:39;12.60;99.90
45715;DHT22;31430;61.646;24.704;2022-07-29T04:04:05;12.70;99.90
45715;DHT22;31430;61.646;24.704;2022-07-29T04:06:39;12.50;99.90
45715;DHT22;31430;61.646;24.704;2022-07-29T04:09:04;12.60;99.90
45715;DHT22;31430;61.646;24.704;2022-07-29T04:11:30;12.70;99.90
45715;DHT22;31430;61.646;24.704;2022-07-29T04:13:56;12.80;99.90
45715;DHT22;31430;61.646;24.704;2022-07-29T04:16:21;12.70;99.90
45715;DHT22;31430;61.646;24.704;2022-07-29T04:18:47;12.70;99.90
45715;DHT22;31430;61.646;24.704;2022-07-29T04:21:13;12.70;99.90
45715;DHT22;31430;61.646;24.704;2022-07-29T04:23:38;12.60;99.90
45715;DHT22;31430;61.646;24.704;2022-07-29T04:26:04;12.70;99.90
45715;DHT22;31430;61.646;24.704;2022-07-29T04:28:29;12.70;99.90
45715;DHT22;31430;61.646;24.704;2022-07-29T04:30:55;12.70;99.90
45715;DHT22;31430;61.646;24.704;2022-07-29T04:33:21;12.70;99.90
45715;DHT22;31430;61.646;24.704;2022-07-29T04:35:46;12.80;99.90
45715;DHT22;31430;61.646;24.704;2022-07-29T04:38:12;12.90;99.90
45715;DHT22;31430;61.646;24.704;2022-07-29T04:40:37;13.10;99.90
45715;DHT22;31430;61.646;24.704;2022-07-29T04:43:04;13.20;99.90
45715;DHT22;31430;61.646;24.704;2022-07-29T04:45:29;13.40;99.90
45715;DHT22;31430;61.646;24.704;2022-07-29T04:47:55;13.50;99.90
45715;DHT22;31430;61.646;24.704;2022-07-29T04:50:21;13.70;99.90
45715;DHT22;31430;61.646;24.704;2022-07-29T04:52:47;14.10;99.90
45715;DHT22;31430;61.646;24.704;2022-07-29T04:55:13;14.30;99.90
45715;DHT22;31430;61.646;24.704;2022-07-29T04:57:38;14.30;99.90
45715;DHT22;31430;61.646;24.704;2022-07-29T05:00:05;14.30;99.90
45715;DHT22;31430;61.646;24.704;2022-07-29T05:02:31;14.50;99.90
45715;DHT22;31430;61.646;24.704;2022-07-29T05:04:56;14.60;99.90
45715;DHT22;31430;61.646;24.704;2022-07-29T05:07:22;14.70;99.90
45715;DHT22;31430;61.646;24.704;2022-07-29T05:09:48;14.90;99.90
45715;DHT22;31430;61.646;24.704;2022-07-29T05:12:13;14.80;99.90
45715;DHT22;31430;61.646;24.704;2022-07-29T05:14:39;14.90;99.90
45715;DHT22;31430;61.646;24.704;2022-07-29T05:17:05;14.90;99.90
45715;DHT22;31430;61.646;24.704;2022-07-29T05:19:30;15.10;99.90
45715;DHT22;31430;61.646;24.704;2022-07-29T05:21:57;15.20;99.90
45715;DHT22;31430;61.646;24.704;2022-07-29T05:24:22;15.10;99.90
45715;DHT22;31430;61.646;24.704;2022-07-29T05:26:48;15.20;99.90
45715;DHT22;31430;61.646;24.704;2022-07-29T05:29:14;15.50;99.90
45715;DHT22;31430;61.646;24.704;2022-07-29T05:31:39;15.60;99.90
45715;DHT22;31430;61.646;24.704;2022-07-29T05:34:05;15.70;99.90
45715;DHT22;31430;61.646;24.704;2022-07-29T05:36:31;15.80;99.90
45715;DHT22;31430;61.646;24.704;2022-07-29T05:38:56;15.60;99.90
45715;DHT22;31430;61.646;24.704;2022-07-29T05:41:22;15.60;99.90
45715;DHT22;31430;61.646;24.704;2022-07-29T05:43:48;15.50;99.90
45715;DHT22;31430;61.646;24.704;2022-07-29T05:46:14;15.70;99.90
45715;DHT22;31430;61.646;24.704;2022-07-29T05:48:39;15.60;99.90
45715;DHT22;31430;61.646;24.704;2022-07-29T05:51:05;15.60;99.90
45715;DHT22;31430;61.646;24.704;2022-07-29T05:53:31;15.40;99.90
45715;DHT22;31430;61.646;24.704;2022-07-29T05:55:56;15.40;99.90
45715;DHT22;31430;61.646;24.704;2022-07-29T05:58:22;15.50;99.90
45715;DHT22;31430;61.646;24.704;2022-07-29T06:00:48;15.50;99.90
45715;DHT22;31430;61.646;24.704;2022-07-29T06:03:14;15.50;99.90
45715;DHT22;31430;61.646;24.704;2022-07-29T06:05:40;15.40;99.90
45715;DHT22;31430;61.646;24.704;2022-07-29T06:08:05;15.40;99.90
45715;DHT22;31430;61.646;24.704;2022-07-29T06:10:34;15.50;99.90
45715;DHT22;31430;61.646;24.704;2022-07-29T06:12:59;15.70;99.90
45715;DHT22;31430;61.646;24.704;2022-07-29T06:15:25;15.50;99.90
45715;DHT22;31430;61.646;24.704;2022-07-29T06:17:51;15.40;99.90
45715;DHT22;31430;61.646;24.704;2022-07-29T06:20:18;15.50;99.90
45715;DHT22;31430;61.646;24.704;2022-07-29T06:22:43;15.80;99.90
45715;DHT22;31430;61.646;24.704;2022-07-29T06:25:09;15.80;99.90
45715;DHT22;31430;61.646;24.704;2022-07-29T06:27:35;16.00;99.90
45715;DHT22;31430;61.646;24.704;2022-07-29T06:30:01;16.10;99.90
45715;DHT22;31430;61.646;24.704;2022-07-29T06:32:27;16.20;99.90
45715;DHT22;31430;61.646;24.704;2022-07-29T06:34:53;15.90;99.90
45715;DHT22;31430;61.646;24.704;2022-07-29T06:37:18;16.00;99.90
45715;DHT22;31430;61.646;24.704;2022-07-29T06:39:44;16.30;99.90
45715;DHT22;31430;61.646;24.704;2022-07-29T06:42:10;16.50;99.90
45715;DHT22;31430;61.646;24.704;2022-07-29T06:44:35;16.50;99.90
45715;DHT22;31430;61.646;24.704;2022-07-29T06:47:01;16.30;99.90
45715;DHT22;31430;61.646;24.704;2022-07-29T06:49:27;16.60;99.90
45715;DHT22;31430;61.646;24.704;2022-07-29T06:51:54;16.90;99.90
45715;DHT22;31430;61.646;24.704;2022-07-29T06:54:20;17.00;99.90
45715;DHT22;31430;61.646;24.704;2022-07-29T06:56:45;16.60;99.90
45715;DHT22;31430;61.646;24.704;2022-07-29T06:59:12;16.70;99.90
45715;DHT22;31430;61.646;24.704;2022-07-29T07:01:40;16.60;99.90
45715;DHT22;31430;61.646;24.704;2022-07-29T07:04:06;16.40;99.90
45715;DHT22;31430;61.646;24.704;2022-07-29T07:06:34;16.60;99.90
45715;DHT22;31430;61.646;24.704;2022-07-29T07:08:59;16.90;99.90
45715;DHT22;31430;61.646;24.704;2022-07-29T07:11:25;17.10;99.90
45715;DHT22;31430;61.646;24.704;2022-07-29T07:13:51;17.30;99.90
45715;DHT22;31430;61.646;24.704;2022-07-29T07:16:16;17.30;99.90
45715;DHT22;31430;61.646;24.704;2022-07-29T07:18:42;17.10;99.90
45715;DHT22;31430;61.646;24.704;2022-07-29T07:21:10;16.90;97.70
45715;DHT22;31430;61.646;24.704;2022-07-29T07:23:36;16.90;99.90
45715;DHT22;31430;61.646;24.704;2022-07-29T07:26:02;16.80;99.90
45715;DHT22;31430;61.646;24.704;2022-07-29T07:28:28;17.10;99.90
45715;DHT22;31430;61.646;24.704;2022-07-29T07:30:54;17.10;99.90
45715;DHT22;31430;61.646;24.704;2022-07-29T07:33:20;17.10;99.90
45715;DHT22;31430;61.646;24.704;2022-07-29T07:35:46;17.40;99.90
45715;DHT22;31430;61.646;24.704;2022-07-29T07:38:12;17.40;99.20
45715;DHT22;31430;61.646;24.704;2022-07-29T07:40:37;17.50;97.80
45715;DHT22;31430;61.646;24.704;2022-07-29T07:43:03;17.50;98.80
45715;DHT22;31430;61.646;24.704;2022-07-29T07:45:29;17.70;97.70
45715;DHT22;31430;61.646;24.704;2022-07-29T07:47:55;17.70;99.30
45715;DHT22;31430;61.646;24.704;2022-07-29T07:50:20;17.50;96.40
45715;DHT22;31430;61.646;24.704;2022-07-29T07:52:50;17.50;99.90
45715;DHT22;31430;61.646;24.704;2022-07-29T07:55:17;17.50;99.10
45715;DHT22;31430;61.646;24.704;2022-07-29T07:57:44;18.10;94.80
45715;DHT22;31430;61.646;24.704;2022-07-29T08:00:09;18.10;97.10
45715;DHT22;31430;61.646;24.704;2022-07-29T08:02:35;18.30;95.30
45715;DHT22;31430;61.646;24.704;2022-07-29T08:05:01;18.10;93.20
45715;DHT22;31430;61.646;24.704;2022-07-29T08:07:26;18.10;94.10
45715;DHT22;31430;61.646;24.704;2022-07-29T08:09:52;18.40;92.50
45715;DHT22;31430;61.646;24.704;2022-07-29T08:12:18;18.60;94.60
45715;DHT22;31430;61.646;24.704;2022-07-29T08:14:43;18.60;93.30
45715;DHT22;31430;61.646;24.704;2022-07-29T08:17:09;18.10;92.00
45715;DHT22;31430;61.646;24.704;2022-07-29T08:19:35;18.00;92.70
45715;DHT22;31430;61.646;24.704;2022-07-29T08:22:02;18.00;92.50
45715;DHT22;31430;61.646;24.704;2022-07-29T08:24:27;18.30;91.30
45715;DHT22;31430;61.646;24.704;2022-07-29T08:27:09;18.30;91.60
45715;DHT22;31430;61.646;24.704;2022-07-29T08:29:35;18.30;90.40
45715;DHT22;31430;61.646;24.704;2022-07-29T08:32:01;18.10;92.50
45715;DHT22;31430;61.646;24.704;2022-07-29T08:34:26;18.10;91.60
45715;DHT22;31430;61.646;24.704;2022-07-29T08:36:52;18.20;94.60
45715;DHT22;31430;61.646;24.704;2022-07-29T08:39:18;18.20;92.80
45715;DHT22;31430;61.646;24.704;2022-07-29T08:41:44;18.00;91.90
45715;DHT22;31430;61.646;24.704;2022-07-29T08:44:09;17.90;92.70
45715;DHT22;31430;61.646;24.704;2022-07-29T08:46:38;17.60;91.00
45715;DHT22;31430;61.646;24.704;2022-07-29T08:49:04;18.10;91.90
45715;DHT22;31430;61.646;24.704;2022-07-29T08:51:30;18.50;93.00
45715;DHT22;31430;61.646;24.704;2022-07-29T08:53:59;18.80;92.40
45715;DHT22;31430;61.646;24.704;2022-07-29T08:56:25;19.00;87.70
45715;DHT22;31430;61.646;24.704;2022-07-29T08:58:51;18.70;87.80
45715;DHT22;31430;61.646;24.704;2022-07-29T09:01:20;18.60;86.40
45715;DHT22;31430;61.646;24.704;2022-07-29T09:03:46;18.20;87.70
45715;DHT22;31430;61.646;24.704;2022-07-29T09:06:14;18.10;88.20
45715;DHT22;31430;61.646;24.704;2022-07-29T09:08:40;18.10;88.50
45715;DHT22;31430;61.646;24.704;2022-07-29T09:11:06;18.00;88.60
45715;DHT22;31430;61.646;24.704;2022-07-29T09:13:33;18.10;89.30
45715;DHT22;31430;61.646;24.704;2022-07-29T09:16:00;18.30;85.00
45715;DHT22;31430;61.646;24.704;2022-07-29T09:18:42;18.50;81.90
45715;DHT22;31430;61.646;24.704;2022-07-29T09:21:14;18.70;81.60
45715;DHT22;31430;61.646;24.704;2022-07-29T09:24:09;18.70;79.30
45715;DHT22;31430;61.646;24.704;2022-07-29T09:26:38;18.60;78.10
45715;DHT22;31430;61.646;24.704;2022-07-29T09:29:18;18.20;78.70
45715;DHT22;31430;61.646;24.704;2022-07-29T09:31:46;18.10;80.00
45715;DHT22;31430;61.646;24.704;2022-07-29T09:34:14;17.80;83.20
45715;DHT22;31430;61.646;24.704;2022-07-29T09:36:47;17.50;83.90
45715;DHT22;31430;61.646;24.704;2022-07-29T09:39:13;17.40;84.90
45715;DHT22;31430;61.646;24.704;2022-07-29T09:41:51;17.30;85.90
45715;DHT22;31430;61.646;24.704;2022-07-29T09:44:21;17.40;90.00
45715;DHT22;31430;61.646;24.704;2022-07-29T09:47:03;17.30;87.40
45715;DHT22;31430;61.646;24.704;2022-07-29T09:49:36;17.50;90.70
45715;DHT22;31430;61.646;24.704;2022-07-29T09:52:15;17.70;85.70
45715;DHT22;31430;61.646;24.704;2022-07-29T09:54:40;17.70;88.30
45715;DHT22;31430;61.646;24.704;2022-07-29T09:57:08;17.70;87.40
45715;DHT22;31430;61.646;24.704;2022-07-29T09:59:37;17.60;89.00
45715;DHT22;31430;61.646;24.704;2022-07-29T10:02:11;17.50;88.10
45715;DHT22;31430;61.646;24.704;2022-07-29T10:04:42;18.00;87.60
45715;DHT22;31430;61.646;24.704;2022-07-29T10:07:08;18.20;89.60
45715;DHT22;31430;61.646;24.704;2022-07-29T10:09:34;18.70;89.00
45715;DHT22;31430;61.646;24.704;2022-07-29T10:14:32;18.20;85.80
45715;DHT22;31430;61.646;24.704;2022-07-29T10:17:03;17.90;89.40
45715;DHT22;31430;61.646;24.704;2022-07-29T10:19:30;17.70;89.50
45715;DHT22;31430;61.646;24.704;2022-07-29T10:21:58;17.30;91.40
45715;DHT22;31430;61.646;24.704;2022-07-29T10:24:28;17.00;92.00
45715;DHT22;31430;61.646;24.704;2022-07-29T10:26:59;17.00;91.10
45715;DHT22;31430;61.646;24.704;2022-07-29T10:29:26;17.10;90.10
45715;DHT22;31430;61.646;24.704;2022-07-29T10:32:06;17.20;89.90
45715;DHT22;31430;61.646;24.704;2022-07-29T10:37:26;17.20;89.80
45715;DHT22;31430;61.646;24.704;2022-07-29T10:40:27;17.50;87.90
45715;DHT22;31430;61.646;24.704;2022-07-29T10:43:19;17.50;89.70
45715;DHT22;31430;61.646;24.704;2022-07-29T10:45:48;17.70;88.20
45715;DHT22;31430;61.646;24.704;2022-07-29T10:48:14;17.80;85.90
45715;DHT22;31430;61.646;24.704;2022-07-29T10:53:23;17.80;82.80
45715;DHT22;31430;61.646;24.704;2022-07-29T10:55:50;17.70;85.00
45715;DHT22;31430;61.646;24.704;2022-07-29T10:58:21;18.00;84.00
45715;DHT22;31430;61.646;24.704;2022-07-29T11:00:49;18.10;87.40
45715;DHT22;31430;61.646;24.704;2022-07-29T11:03:44;18.20;84.20
45715;DHT22;31430;61.646;24.704;2022-07-29T11:06:11;18.30;85.60
45715;DHT22;31430;61.646;24.704;2022-07-29T11:08:36;18.30;82.90
45715;DHT22;31430;61.646;24.704;2022-07-29T11:13:53;18.40;88.30
45715;DHT22;31430;61.646;24.704;2022-07-29T11:16:21;18.40;88.00
45715;DHT22;31430;61.646;24.704;2022-07-29T11:21:42;18.70;84.30
45715;DHT22;31430;61.646;24.704;2022-07-29T11:24:13;18.70;86.20
45715;DHT22;31430;61.646;24.704;2022-07-29T11:26:39;18.60;83.60
45715;DHT22;31430;61.646;24.704;2022-07-29T11:29:21;18.70;85.30
45715;DHT22;31430;61.646;24.704;2022-07-29T11:31:51;19.20;88.10
45715;DHT22;31430;61.646;24.704;2022-07-29T11:34:28;19.90;80.90
45715;DHT22;31430;61.646;24.704;2022-07-29T11:45:05;18.50;85.40
45715;DHT22;31430;61.646;24.704;2022-07-29T11:47:40;18.00;84.10
45715;DHT22;31430;61.646;24.704;2022-07-29T11:50:09;18.10;83.80
45715;DHT22;31430;61.646;24.704;2022-07-29T11:52:39;18.20;86.50
45715;DHT22;31430;61.646;24.704;2022-07-29T11:55:11;18.00;86.40
45715;DHT22;31430;61.646;24.704;2022-07-29T11:58:06;18.20;85.60
45715;DHT22;31430;61.646;24.704;2022-07-29T12:00:39;18.60;81.60
45715;DHT22;31430;61.646;24.704;2022-07-29T12:03:07;18.40;81.40
45715;DHT22;31430;61.646;24.704;2022-07-29T12:05:38;18.50;84.80
45715;DHT22;31430;61.646;24.704;2022-07-29T12:10:31;18.50;89.50
45715;DHT22;31430;61.646;24.704;2022-07-29T12:12:57;18.70;81.40
45715;DHT22;31430;61.646;24.704;2022-07-29T12:15:23;18.80;79.90
45715;DHT22;31430;61.646;24.704;2022-07-29T12:17:50;18.80;80.50
45715;DHT22;31430;61.646;24.704;2022-07-29T12:20:28;18.80;82.10
45715;DHT22;31430;61.646;24.704;2022-07-29T12:22:54;18.70;81.10
45715;DHT22;31430;61.646;24.704;2022-07-29T12:25:22;18.60;80.70
45715;DHT22;31430;61.646;24.704;2022-07-29T12:27:57;18.50;83.60
45715;DHT22;31430;61.646;24.704;2022-07-29T12:30:37;18.50;81.40
45715;DHT22;31430;61.646;24.704;2022-07-29T12:33:17;18.90;80.20
45715;DHT22;31430;61.646;24.704;2022-07-29T12:35:46;19.30;78.30
45715;DHT22;31430;61.646;24.704;2022-07-29T12:38:13;19.30;78.70
45715;DHT22;31430;61.646;24.704;2022-07-29T12:40:39;19.50;75.80
45715;DHT22;31430;61.646;24.704;2022-07-29T12:43:06;19.60;75.90
45715;DHT22;31430;61.646;24.704;2022-07-29T12:45:33;19.80;78.20
45715;DHT22;31430;61.646;24.704;2022-07-29T12:47:58;19.70;75.50
45715;DHT22;31430;61.646;24.704;2022-07-29T12:50:24;19.50;77.80
45715;DHT22;31430;61.646;24.704;2022-07-29T12:52:50;19.10;78.10
45715;DHT22;31430;61.646;24.704;2022-07-29T12:58:04;19.50;79.50
45715;DHT22;31430;61.646;24.704;2022-07-29T13:00:30;19.50;80.60
45715;DHT22;31430;61.646;24.704;2022-07-29T13:02:58;19.20;81.40
45715;DHT22;31430;61.646;24.704;2022-07-29T13:05:37;19.50;79.60
45715;DHT22;31430;61.646;24.704;2022-07-29T13:08:14;19.10;80.50
45715;DHT22;31430;61.646;24.704;2022-07-29T13:10:40;18.90;81.40
45715;DHT22;31430;61.646;24.704;2022-07-29T13:13:13;18.70;79.90
45715;DHT22;31430;61.646;24.704;2022-07-29T13:15:44;18.20;79.60
45715;DHT22;31430;61.646;24.704;2022-07-29T13:18:29;18.20;84.40
45715;DHT22;31430;61.646;24.704;2022-07-29T13:20:56;18.30;81.10
45715;DHT22;31430;61.646;24.704;2022-07-29T13:23:21;18.30;83.50
45715;DHT22;31430;61.646;24.704;2022-07-29T13:25:47;18.50;82.50
45715;DHT22;31430;61.646;24.704;2022-07-29T13:28:13;18.70;80.20
45715;DHT22;31430;61.646;24.704;2022-07-29T13:30:42;19.00;79.20
45715;DHT22;31430;61.646;24.704;2022-07-29T13:33:08;19.00;80.30
45715;DHT22;31430;61.646;24.704;2022-07-29T13:35:33;19.00;78.90
45715;DHT22;31430;61.646;24.704;2022-07-29T13:37:59;18.90;79.90
45715;DHT22;31430;61.646;24.704;2022-07-29T13:40:25;18.50;81.80
45715;DHT22;31430;61.646;24.704;2022-07-29T13:42:51;18.40;81.40
45715;DHT22;31430;61.646;24.704;2022-07-29T13:45:16;18.10;87.10
45715;DHT22;31430;61.646;24.704;2022-07-29T13:47:42;18.00;84.30
45715;DHT22;31430;61.646;24.704;2022-07-29T13:50:08;18.20;86.20
45715;DHT22;31430;61.646;24.704;2022-07-29T13:52:36;18.10;86.90
45715;DHT22;31430;61.646;24.704;2022-07-29T13:55:03;18.10;90.70
45715;DHT22;31430;61.646;24.704;2022-07-29T13:57:29;18.10;86.40
45715;DHT22;31430;61.646;24.704;2022-07-29T13:59:55;18.20;86.30
45715;DHT22;31430;61.646;24.704;2022-07-29T14:02:21;18.40;87.20
45715;DHT22;31430;61.646;24.704;2022-07-29T14:04:47;18.70;83.50
45715;DHT22;31430;61.646;24.704;2022-07-29T14:07:13;19.00;85.60
45715;DHT22;31430;61.646;24.704;2022-07-29T14:09:38;19.00;81.40
45715;DHT22;31430;61.646;24.704;2022-07-29T14:12:04;18.70;85.70
45715;DHT22;31430;61.646;24.704;2022-07-29T14:14:30;18.20;86.20
45715;DHT22;31430;61.646;24.704;2022-07-29T14:16:58;18.30;85.10
45715;DHT22;31430;61.646;24.704;2022-07-29T14:19:23;18.10;89.50
45715;DHT22;31430;61.646;24.704;2022-07-29T14:21:49;18.00;90.50
45715;DHT22;31430;61.646;24.704;2022-07-29T14:24:14;18.20;89.30
45715;DHT22;31430;61.646;24.704;2022-07-29T14:26:40;18.20;88.40
45715;DHT22;31430;61.646;24.704;2022-07-29T14:29:06;18.00;87.50
45715;DHT22;31430;61.646;24.704;2022-07-29T14:31:32;18.30;86.40
45715;DHT22;31430;61.646;24.704;2022-07-29T14:33:57;18.20;87.70
45715;DHT22;31430;61.646;24.704;2022-07-29T14:36:23;18.10;90.10
45715;DHT22;31430;61.646;24.704;2022-07-29T14:38:49;18.10;86.30
45715;DHT22;31430;61.646;24.704;2022-07-29T14:41:15;18.20;87.50
45715;DHT22;31430;61.646;24.704;2022-07-29T14:43:41;18.10;87.50
45715;DHT22;31430;61.646;24.704;2022-07-29T14:46:06;18.20;87.80
45715;DHT22;31430;61.646;24.704;2022-07-29T14:48:33;18.20;87.90
45715;DHT22;31430;61.646;24.704;2022-07-29T14:50:59;18.00;88.20
45715;DHT22;31430;61.646;24.704;2022-07-29T14:53:24;18.10;89.50
45715;DHT22;31430;61.646;24.704;2022-07-29T14:55:50;18.30;90.20
45715;DHT22;31430;61.646;24.704;2022-07-29T14:58:16;18.50;83.60
45715;DHT22;31430;61.646;24.704;2022-07-29T15:00:42;18.30;87.90
45715;DHT22;31430;61.646;24.704;2022-07-29T15:03:07;18.20;89.00
45715;DHT22;31430;61.646;24.704;2022-07-29T15:05:35;18.40;85.70
45715;DHT22;31430;61.646;24.704;2022-07-29T15:08:02;18.50;85.80
45715;DHT22;31430;61.646;24.704;2022-07-29T15:10:28;18.80;83.40
45715;DHT22;31430;61.646;24.704;2022-07-29T15:12:54;18.90;85.70
45715;DHT22;31430;61.646;24.704;2022-07-29T15:15:20;18.70;83.50
45715;DHT22;31430;61.646;24.704;2022-07-29T15:17:46;18.60;83.90
45715;DHT22;31430;61.646;24.704;2022-07-29T15:20:11;18.30;84.40
45715;DHT22;31430;61.646;24.704;2022-07-29T15:22:37;18.00;87.00
45715;DHT22;31430;61.646;24.704;2022-07-29T15:25:04;18.00;86.60
45715;DHT22;31430;61.646;24.704;2022-07-29T15:27:30;18.10;90.00
45715;DHT22;31430;61.646;24.704;2022-07-29T15:29:56;18.10;88.90
45715;DHT22;31430;61.646;24.704;2022-07-29T15:32:22;18.20;89.60
45715;DHT22;31430;61.646;24.704;2022-07-29T15:34:48;18.30;86.40
45715;DHT22;31430;61.646;24.704;2022-07-29T15:37:14;18.10;90.20
45715;DHT22;31430;61.646;24.704;2022-07-29T15:39:39;18.00;90.20
45715;DHT22;31430;61.646;24.704;2022-07-29T15:42:05;18.00;90.50
45715;DHT22;31430;61.646;24.704;2022-07-29T15:44:31;18.10;88.90
45715;DHT22;31430;61.646;24.704;2022-07-29T15:46:57;18.00;88.00
45715;DHT22;31430;61.646;24.704;2022-07-29T15:49:33;17.90;90.20
45715;DHT22;31430;61.646;24.704;2022-07-29T15:52:04;17.60;90.20
45715;DHT22;31430;61.646;24.704;2022-07-29T15:54:32;17.50;89.20
45715;DHT22;31430;61.646;24.704;2022-07-29T15:56:58;17.50;89.50
45715;DHT22;31430;61.646;24.704;2022-07-29T15:59:25;17.50;90.10